createdAt,value
2019-05-10T00:00:54.573Z,49.58
2019-05-10T00:03:40.570Z,49.90
2019-05-10T00:06:26.962Z,49.98
2019-05-10T00:08:54.703Z,46.98
2019-05-10T00:11:30.703Z,48.68
2019-05-10T00:14:03.894Z,47.58
2019-05-10T00:16:32.481Z,49.70
2019-05-10T00:19:00.963Z,40.67
2019-05-10T00:21:29.546Z,41.60
2019-05-10T00:23:58.025Z,42.20
2019-05-10T00:26:26.539Z,43.63
2019-05-10T00:28:55.090Z,39.73
2019-05-10T00:31:23.600Z,46.20
2019-05-10T00:33:52.183Z,44.67
2019-05-10T00:36:20.669Z,43.58
2019-05-10T00:38:49.235Z,41.18
2019-05-10T00:41:17.790Z,41.85
2019-05-10T00:43:46.329Z,41.60
2019-05-10T00:46:14.791Z,41.63
2019-05-10T00:48:43.309Z,44.20
2019-05-10T00:51:11.863Z,48.43
2019-05-10T00:53:40.363Z,46.20
2019-05-10T00:56:08.924Z,49.20
2019-05-10T00:58:37.425Z,42.90
2019-05-10T01:01:05.984Z,43.83
2019-05-10T01:03:34.503Z,45.05
2019-05-10T01:06:03.068Z,45.17
2019-05-10T01:08:31.531Z,43.02
2019-05-10T01:11:00.115Z,46.88
2019-05-10T01:13:28.614Z,43.70
2019-05-10T01:15:57.203Z,44.20
2019-05-10T01:18:25.729Z,45.05
2019-05-10T01:20:54.210Z,46.00
2019-05-10T01:23:22.730Z,46.15
2019-05-10T01:25:51.210Z,45.23
2019-05-10T01:28:19.706Z,44.20
2019-05-10T01:30:48.260Z,46.02
2019-05-10T01:33:16.770Z,47.73
2019-05-10T01:35:45.335Z,46.02
2019-05-10T01:38:13.822Z,44.77
2019-05-10T01:40:42.320Z,45.15
2019-05-10T01:43:10.804Z,48.42
2019-05-10T01:45:39.289Z,46.60
2019-05-10T01:48:07.792Z,43.92
2019-05-10T01:50:36.273Z,39.58
2019-05-10T01:53:04.776Z,41.30
2019-05-10T01:55:33.266Z,39.65
2019-05-10T01:58:01.794Z,38.40
2019-05-10T02:00:30.735Z,41.20
2019-05-10T02:02:59.259Z,47.25
2019-05-10T02:05:27.745Z,43.35
2019-05-10T02:07:56.261Z,44.65
2019-05-10T02:10:24.771Z,44.00
2019-05-10T02:12:53.365Z,44.50
2019-05-10T02:15:21.946Z,39.47
2019-05-10T02:17:50.430Z,40.43
2019-05-10T02:20:18.945Z,44.40
2019-05-10T02:22:47.431Z,45.95
2019-05-10T02:25:16.158Z,43.28
2019-05-10T02:27:44.650Z,44.65
2019-05-10T02:30:14.678Z,46.75
2019-05-10T02:32:43.194Z,45.40
2019-05-10T02:35:11.923Z,48.23
2019-05-10T02:37:40.506Z,51.37
2019-05-10T02:40:09.532Z,47.62
2019-05-10T02:42:38.170Z,47.23
2019-05-10T02:45:08.405Z,48.15
2019-05-10T02:47:36.892Z,47.67
2019-05-10T02:50:08.359Z,47.80
2019-05-10T02:52:36.867Z,52.88
2019-05-10T02:55:07.073Z,55.65
2019-05-10T02:57:37.605Z,56.15
2019-05-10T03:00:07.738Z,51.07
2019-05-10T03:02:37.892Z,47.70
2019-05-10T03:05:07.537Z,48.35
2019-05-10T03:07:38.233Z,46.02
2019-05-10T03:10:09.425Z,45.97
2019-05-10T03:15:07.723Z,45.30
2019-05-10T03:17:38.417Z,41.15
2019-05-10T03:20:07.250Z,40.12
2019-05-10T03:22:38.788Z,42.17
2019-05-10T03:27:35.729Z,43.60
2019-05-10T03:30:05.528Z,39.20
2019-05-10T03:32:34.113Z,39.85
2019-05-10T03:35:02.743Z,41.28
2019-05-10T03:37:31.685Z,40.65
2019-05-10T03:40:00.182Z,38.40
2019-05-10T03:42:28.737Z,42.67
2019-05-10T03:44:57.234Z,37.05
2019-05-10T03:47:25.783Z,37.97
2019-05-10T03:49:54.297Z,36.45
2019-05-10T03:52:22.782Z,41.15
2019-05-10T03:54:51.373Z,42.43
2019-05-10T03:57:19.860Z,37.58
2019-05-10T03:59:48.351Z,43.33
2019-05-10T04:02:16.938Z,39.98
2019-05-10T04:04:45.430Z,40.65
2019-05-10T04:07:13.965Z,37.23
2019-05-10T04:09:42.548Z,36.28
2019-05-10T04:12:11.115Z,35.50
2019-05-10T04:14:39.603Z,36.95
2019-05-10T04:17:08.101Z,35.50
2019-05-10T04:19:36.786Z,36.93
2019-05-10T04:22:05.272Z,43.65
2019-05-10T04:24:36.454Z,42.97
2019-05-10T04:27:05.034Z,51.58
2019-05-10T04:29:33.553Z,52.20
2019-05-10T04:32:02.050Z,48.63
2019-05-10T04:34:30.556Z,41.50
2019-05-10T04:36:59.059Z,63.98
2019-05-10T04:39:27.549Z,47.73
2019-05-10T04:41:56.080Z,55.65
2019-05-10T04:44:24.573Z,60.20
2019-05-10T04:46:53.073Z,49.27
2019-05-10T04:49:21.567Z,53.57
2019-05-10T04:51:50.082Z,44.23
2019-05-10T04:54:18.573Z,59.18
2019-05-10T04:56:47.162Z,42.60
2019-05-10T04:59:15.636Z,47.13
2019-05-10T05:01:44.180Z,50.80
2019-05-10T05:04:12.643Z,34.73
2019-05-10T05:06:41.144Z,53.83
2019-05-10T05:09:10.774Z,43.08
2019-05-10T05:11:39.288Z,51.60
2019-05-10T05:14:09.695Z,46.77
2019-05-10T05:16:38.004Z,40.43
2019-05-10T05:19:06.497Z,39.98
2019-05-10T05:21:35.003Z,64.80
2019-05-10T05:24:03.514Z,37.05
2019-05-10T05:26:32.006Z,41.18
2019-05-10T05:29:00.514Z,41.18
2019-05-10T05:31:29.029Z,42.73
2019-05-10T05:33:59.138Z,38.73
2019-05-10T05:36:27.743Z,40.75
2019-05-10T05:38:56.232Z,36.50
2019-05-10T05:41:24.719Z,40.13
2019-05-10T05:43:53.229Z,41.42
2019-05-10T05:46:21.779Z,34.90
2019-05-10T05:48:51.562Z,36.25
2019-05-10T05:51:20.250Z,29.17
2019-05-10T05:53:48.791Z,34.50
2019-05-10T05:56:17.337Z,41.75
2019-05-10T05:58:47.099Z,30.02
2019-05-10T06:01:24.693Z,25.32
2019-05-10T06:03:45.997Z,28.35
2019-05-10T06:06:21.239Z,34.10
2019-05-10T06:08:44.800Z,31.48
2019-05-10T06:11:13.385Z,32.03
2019-05-10T06:13:41.884Z,34.13
2019-05-10T06:16:12.906Z,28.98
2019-05-10T06:18:41.730Z,28.55
2019-05-10T06:21:10.823Z,29.07
2019-05-10T06:23:39.321Z,28.75
2019-05-10T06:26:21.398Z,25.25
2019-05-10T06:28:57.881Z,24.32
2019-05-10T06:31:08.475Z,24.32
2019-05-10T06:33:39.630Z,25.35
2019-05-10T06:36:07.275Z,21.97
2019-05-10T06:38:35.833Z,27.37
2019-05-10T06:41:10.190Z,20.35
2019-05-10T06:43:35.242Z,24.32
2019-05-10T06:46:05.191Z,24.35
2019-05-10T06:48:33.863Z,23.95
2019-05-10T06:51:03.040Z,22.77
2019-05-10T06:53:32.593Z,29.23
2019-05-10T06:56:01.115Z,29.40
2019-05-10T06:58:30.589Z,23.90
2019-05-10T07:00:59.851Z,26.20
2019-05-10T07:03:28.375Z,24.63
2019-05-10T07:05:56.876Z,23.87
2019-05-10T07:08:25.490Z,21.77
2019-05-10T07:10:53.968Z,22.17
2019-05-10T07:13:22.487Z,49.58
2019-05-10T07:15:51.574Z,63.52
2019-05-10T07:18:22.710Z,32.70
2019-05-10T07:20:50.316Z,42.85
2019-05-10T07:23:18.798Z,20.55
2019-05-10T07:25:47.328Z,32.50
2019-05-10T07:28:17.640Z,30.72
2019-05-10T07:30:46.287Z,25.77
2019-05-10T07:33:14.837Z,41.50
2019-05-10T07:35:43.356Z,27.35
2019-05-10T07:38:11.839Z,23.83
2019-05-10T07:40:40.342Z,26.25
2019-05-10T07:43:08.834Z,24.82
2019-05-10T07:45:37.332Z,21.10
2019-05-10T07:48:08.319Z,33.42
2019-05-10T07:50:36.081Z,20.88
2019-05-10T07:53:06.275Z,17.05
2019-05-10T07:55:34.759Z,30.62
2019-05-10T07:58:05.024Z,31.30
2019-05-10T08:00:37.959Z,17.07
2019-05-10T08:03:13.114Z,18.32
2019-05-10T08:05:34.707Z,16.87
2019-05-10T08:08:03.538Z,20.90
2019-05-10T08:10:32.089Z,28.67
2019-05-10T08:13:03.586Z,24.82
2019-05-10T08:15:34.730Z,38.53
2019-05-10T08:18:01.048Z,30.00
2019-05-10T08:20:45.724Z,17.57
2019-05-10T08:22:59.846Z,24.32
2019-05-10T08:25:35.429Z,15.32
2019-05-10T08:27:58.625Z,14.98
2019-05-10T08:30:42.532Z,13.32
2019-05-10T08:33:09.635Z,21.00
2019-05-10T08:35:38.934Z,23.60
2019-05-10T08:38:07.660Z,17.30
2019-05-10T08:40:38.040Z,24.98
2019-05-10T08:43:08.898Z,27.90
2019-05-10T08:45:38.739Z,11.70
2019-05-10T08:48:07.329Z,15.95
2019-05-10T08:50:49.522Z,18.37
2019-05-10T08:53:10.943Z,22.37
2019-05-10T08:55:36.338Z,28.05
2019-05-10T08:58:05.055Z,37.53
2019-05-10T09:00:48.860Z,45.85
2019-05-10T09:03:09.554Z,40.83
2019-05-10T09:05:34.901Z,16.67
2019-05-10T09:08:05.761Z,31.93
2019-05-10T09:10:34.229Z,15.10
2019-05-10T09:13:03.464Z,8.93
2019-05-10T09:15:33.076Z,14.33
2019-05-10T09:18:05.289Z,14.30
2019-05-10T09:20:32.129Z,9.08
2019-05-10T09:23:02.470Z,12.65
2019-05-10T09:25:33.617Z,15.53
2019-05-10T09:28:02.472Z,8.50
2019-05-10T09:30:36.579Z,7.15
2019-05-10T09:33:10.461Z,20.80
2019-05-10T09:35:38.790Z,18.63
2019-05-10T09:38:06.232Z,7.12
2019-05-10T09:40:34.787Z,19.27
2019-05-10T09:43:07.400Z,7.42
2019-05-10T09:45:33.758Z,5.83
2019-05-10T09:48:02.626Z,13.40
2019-05-10T09:50:41.224Z,10.75
2019-05-10T09:53:01.568Z,10.10
2019-05-10T09:55:30.049Z,16.97
2019-05-10T09:57:58.571Z,20.88
2019-05-10T10:00:37.817Z,10.23
2019-05-10T10:03:08.182Z,27.87
2019-05-10T10:05:39.785Z,16.83
2019-05-10T10:08:09.594Z,12.43
2019-05-10T10:10:37.134Z,15.75
2019-05-10T10:13:13.243Z,17.37
2019-05-10T10:15:37.723Z,13.35
2019-05-10T10:18:06.448Z,15.38
2019-05-10T10:20:43.013Z,21.42
2019-05-10T10:23:07.368Z,34.80
2019-05-10T10:25:40.804Z,15.10
2019-05-10T10:28:10.353Z,16.35
2019-05-10T10:30:37.424Z,17.80
2019-05-10T10:33:11.492Z,12.00
2019-05-10T10:35:37.870Z,10.00
2019-05-10T10:38:07.976Z,45.33
2019-05-10T10:40:44.134Z,14.55
2019-05-10T10:43:07.719Z,25.05
2019-05-10T10:45:37.709Z,15.80
2019-05-10T10:48:10.589Z,11.30
2019-05-10T10:50:36.623Z,11.65
2019-05-10T10:53:07.756Z,11.90
2019-05-10T10:55:39.383Z,9.23
2019-05-10T10:58:07.403Z,15.00
2019-05-10T11:00:38.958Z,9.43
2019-05-10T11:03:07.497Z,25.20
2019-05-10T11:05:36.006Z,37.05
2019-05-10T11:08:05.059Z,24.23
2019-05-10T11:10:33.704Z,20.55
2019-05-10T11:13:10.027Z,49.13
2019-05-10T11:15:35.972Z,37.50
2019-05-10T11:18:02.705Z,33.02
2019-05-10T11:20:31.929Z,19.37
2019-05-10T11:23:00.643Z,16.32
2019-05-10T11:25:29.246Z,33.75
2019-05-10T11:27:59.302Z,125.90
2019-05-10T11:30:28.051Z,129.87
2019-05-10T11:32:56.542Z,61.42
2019-05-10T11:35:30.547Z,46.63
2019-05-10T11:37:55.362Z,25.10
2019-05-10T11:40:30.879Z,21.93
2019-05-10T11:42:54.173Z,22.55
2019-05-10T11:45:26.273Z,24.92
2019-05-10T11:47:59.075Z,29.90
2019-05-10T11:50:34.932Z,23.77
2019-05-10T11:53:01.006Z,16.70
2019-05-10T11:55:30.928Z,20.97
2019-05-10T11:58:03.037Z,28.32
2019-05-10T12:00:34.081Z,32.50
2019-05-10T12:03:07.889Z,34.40
2019-05-10T12:05:32.062Z,48.55
2019-05-10T12:08:02.182Z,39.98
2019-05-10T12:10:32.005Z,47.53
2019-05-10T12:13:11.333Z,25.10
2019-05-10T12:15:31.957Z,41.45
2019-05-10T12:18:04.545Z,40.63
2019-05-10T12:20:41.694Z,28.60
2019-05-10T12:23:03.369Z,29.87
2019-05-10T12:25:46.351Z,44.98
2019-05-10T12:28:01.571Z,33.98
2019-05-10T12:30:34.854Z,50.40
2019-05-10T12:33:08.964Z,41.90
2019-05-10T12:35:35.690Z,36.58
2019-05-10T12:38:01.679Z,43.08
2019-05-10T12:40:31.429Z,30.45
2019-05-10T12:43:00.684Z,31.68
2019-05-10T12:45:31.367Z,35.60
2019-05-10T12:48:01.292Z,31.87
2019-05-10T12:50:29.814Z,46.55
2019-05-10T12:53:10.078Z,46.13
2019-05-10T12:55:29.467Z,31.07
2019-05-10T12:57:57.967Z,32.60
2019-05-10T13:00:26.531Z,20.10
2019-05-10T13:03:10.282Z,21.45
2019-05-10T13:05:32.122Z,288.27
2019-05-10T13:07:55.505Z,108.52
2019-05-10T13:10:24.073Z,125.35
2019-05-10T13:12:52.584Z,67.22
2019-05-10T13:15:24.651Z,22.07
2019-05-10T13:17:53.063Z,29.85
2019-05-10T13:20:22.460Z,57.73
2019-05-10T13:22:50.972Z,103.10
2019-05-10T13:25:19.516Z,24.37
2019-05-10T13:27:48.035Z,39.33
2019-05-10T13:30:27.045Z,20.62
2019-05-10T13:32:52.777Z,206.02
2019-05-10T13:35:18.344Z,206.85
2019-05-10T13:37:46.851Z,39.88
2019-05-10T13:40:16.081Z,39.83
2019-05-10T13:42:45.994Z,33.00
2019-05-10T13:45:15.210Z,15.50
2019-05-10T13:47:43.719Z,15.15
2019-05-10T13:50:12.480Z,15.95
2019-05-10T13:52:41.504Z,69.92
2019-05-10T13:55:10.263Z,15.85
2019-05-10T13:57:38.787Z,15.98
2019-05-10T14:00:08.634Z,198.62
2019-05-10T14:02:37.156Z,14.47
2019-05-10T14:05:06.687Z,20.48
2019-05-10T14:07:35.182Z,23.02
2019-05-10T14:10:04.840Z,23.20
2019-05-10T14:12:33.896Z,11.80
2019-05-10T14:15:08.342Z,50.00
2019-05-10T14:17:32.626Z,22.40
2019-05-10T14:20:01.122Z,29.23
2019-05-10T14:22:29.668Z,18.85
2019-05-10T14:24:59.171Z,11.22
2019-05-10T14:27:29.765Z,17.62
2019-05-10T14:29:59.196Z,18.05
2019-05-10T14:32:27.675Z,49.93
2019-05-10T14:34:56.178Z,40.75
2019-05-10T14:37:24.694Z,23.62
2019-05-10T14:39:53.187Z,31.05
2019-05-10T14:42:23.810Z,19.92
2019-05-10T14:44:51.926Z,11.47
2019-05-10T14:47:20.397Z,18.00
2019-05-10T14:49:48.887Z,24.18
2019-05-10T14:52:17.396Z,22.50
2019-05-10T14:54:49.855Z,11.60
2019-05-10T14:59:56.709Z,10.00
2019-05-10T15:02:25.475Z,14.78
2019-05-10T15:04:53.977Z,16.82
2019-05-10T15:07:22.477Z,16.60
2019-05-10T15:09:54.312Z,13.80
2019-05-10T15:12:22.743Z,31.75
2019-05-10T15:14:51.495Z,30.45
2019-05-10T15:17:20.439Z,14.30
2019-05-10T15:19:57.084Z,26.45
2019-05-10T15:22:22.990Z,22.60
2019-05-10T15:24:49.550Z,17.67
2019-05-10T15:27:21.825Z,15.18
2019-05-10T15:29:48.382Z,14.15
2019-05-10T15:32:16.936Z,12.63
2019-05-10T15:35:04.305Z,13.43
2019-05-10T15:37:18.005Z,11.97
2019-05-10T15:39:46.503Z,14.07
2019-05-10T15:42:14.998Z,12.93
2019-05-10T15:44:43.487Z,13.10
2019-05-10T15:47:14.532Z,22.70
2019-05-10T15:49:42.239Z,22.77
2019-05-10T15:52:17.563Z,18.23
2019-05-10T15:54:44.596Z,20.45
2019-05-10T15:57:14.449Z,26.77
2019-05-10T15:59:41.785Z,32.90
2019-05-10T16:02:10.348Z,14.33
2019-05-10T16:04:38.862Z,12.10
2019-05-10T16:07:09.343Z,13.38
2019-05-10T16:09:37.691Z,19.80
2019-05-10T16:12:08.720Z,18.35
2019-05-10T16:14:39.207Z,21.62
2019-05-10T16:19:41.244Z,22.48
2019-05-10T16:22:09.762Z,29.04
2019-05-10T16:24:38.288Z,38.00
2019-05-10T16:27:08.344Z,26.10
2019-05-10T16:29:43.385Z,17.90
2019-05-10T16:32:15.390Z,13.38
2019-05-10T16:34:44.371Z,11.00
2019-05-10T16:37:13.021Z,17.87
2019-05-10T16:39:43.284Z,27.77
2019-05-10T16:42:18.735Z,37.23
2019-05-10T16:45:00.412Z,45.30
2019-05-10T16:47:29.199Z,25.00
2019-05-10T16:49:57.743Z,26.55
2019-05-10T16:52:27.940Z,28.87
2019-05-10T16:57:22.938Z,24.87
2019-05-10T16:59:51.453Z,12.05
2019-05-10T17:02:20.083Z,24.00
2019-05-10T17:04:48.715Z,14.65
2019-05-10T17:07:19.041Z,17.32
2019-05-10T17:09:49.602Z,18.10
2019-05-10T17:12:22.078Z,12.50
2019-05-10T17:14:50.589Z,11.63
2019-05-10T17:17:18.495Z,13.13
2019-05-10T17:19:47.024Z,12.60
2019-05-10T17:22:15.622Z,13.85
2019-05-10T17:24:44.158Z,17.45
2019-05-10T17:27:12.670Z,25.72
2019-05-10T17:29:44.453Z,19.45
2019-05-10T17:32:11.416Z,19.02
2019-05-10T17:34:42.380Z,19.52
2019-05-10T17:40:04.773Z,19.32
2019-05-10T17:42:51.879Z,18.83
2019-05-10T17:48:21.379Z,23.95
2019-05-10T17:50:49.884Z,30.53
2019-05-10T17:53:18.382Z,50.23
2019-05-10T17:55:49.364Z,35.08
2019-05-10T17:58:17.383Z,32.42
2019-05-10T18:00:46.746Z,31.77
2019-05-10T18:03:15.289Z,32.93
2019-05-10T18:05:46.676Z,33.20
2019-05-10T18:08:14.097Z,27.07
2019-05-10T18:10:42.584Z,23.80
2019-05-10T18:13:11.167Z,26.90
2019-05-10T18:15:39.731Z,25.60
2019-05-10T18:18:08.246Z,34.78
2019-05-10T18:20:42.205Z,43.28
2019-05-10T18:23:07.039Z,48.60
2019-05-10T18:25:35.598Z,81.63
2019-05-10T18:28:04.825Z,57.50
2019-05-10T18:30:33.313Z,57.43
2019-05-10T18:33:06.692Z,118.67
2019-05-10T18:38:01.018Z,113.32
2019-05-10T18:40:31.831Z,123.58
2019-05-10T18:43:03.908Z,85.42
2019-05-10T18:45:30.175Z,140.85
2019-05-10T18:47:58.686Z,119.53
2019-05-10T18:50:27.234Z,289.20
2019-05-10T18:52:55.776Z,188.32
2019-05-10T18:55:24.352Z,276.73
2019-05-10T18:57:52.854Z,124.80
2019-05-10T19:00:22.899Z,116.08
2019-05-10T19:02:55.167Z,111.70
2019-05-10T19:05:25.065Z,82.78
2019-05-10T19:08:03.151Z,73.37
2019-05-10T19:10:22.838Z,55.38
2019-05-10T19:12:59.777Z,51.50
2019-05-10T19:15:21.588Z,48.00
2019-05-10T19:17:50.115Z,44.38
2019-05-10T19:20:18.719Z,46.18
2019-05-10T19:22:47.247Z,47.25
2019-05-10T19:25:15.828Z,51.23
2019-05-10T19:27:50.223Z,62.10
2019-05-10T19:30:20.206Z,77.65
2019-05-10T19:32:50.980Z,98.70
2019-05-10T19:35:16.699Z,143.65
2019-05-10T19:37:45.188Z,103.10
2019-05-10T19:40:14.368Z,206.13
2019-05-10T19:42:44.850Z,275.25
2019-05-10T19:45:19.182Z,199.68
2019-05-10T19:47:43.530Z,210.08
2019-05-10T19:50:12.768Z,199.23
2019-05-10T19:52:41.325Z,184.78
2019-05-10T19:55:12.875Z,197.13
2019-05-10T19:57:40.395Z,225.03
2019-05-10T20:00:09.633Z,192.60
2019-05-10T20:02:38.238Z,240.05
2019-05-10T20:05:10.049Z,231.20
2019-05-10T20:07:46.008Z,219.65
2019-05-10T20:10:09.071Z,226.42
2019-05-10T20:12:37.610Z,223.18
2019-05-10T20:15:07.647Z,196.70
2019-05-10T20:17:36.557Z,163.43
2019-05-10T20:20:08.580Z,161.15
2019-05-10T20:22:37.131Z,150.62
2019-05-10T20:25:09.531Z,134.67
2019-05-10T20:27:38.057Z,112.75
2019-05-10T20:30:07.600Z,118.70
2019-05-10T20:32:36.113Z,129.30
2019-05-10T20:35:06.917Z,123.40
2019-05-10T20:37:35.520Z,118.20
2019-05-10T20:40:06.540Z,89.85
2019-05-10T20:42:35.131Z,75.43
2019-05-10T20:45:08.606Z,68.75
2019-05-10T20:47:34.005Z,59.05
2019-05-10T20:50:02.484Z,61.33
2019-05-10T20:52:30.981Z,50.87
2019-05-10T20:54:59.536Z,49.90
2019-05-10T20:57:28.068Z,47.30
2019-05-10T20:59:56.558Z,54.80
2019-05-10T21:02:25.095Z,61.18
2019-05-10T21:04:53.588Z,75.75
2019-05-10T21:07:22.077Z,53.87
2019-05-10T21:09:50.601Z,53.70
2019-05-10T21:12:19.091Z,58.52
2019-05-10T21:14:48.201Z,71.30
2019-05-10T21:17:16.871Z,56.43
2019-05-10T21:19:45.387Z,78.50
2019-05-10T21:22:13.873Z,58.17
2019-05-10T21:24:42.399Z,59.08
2019-05-10T21:27:10.878Z,45.90
2019-05-10T21:29:39.422Z,55.78
2019-05-10T21:32:08.057Z,53.58
2019-05-10T21:34:36.571Z,50.10
2019-05-10T21:37:05.133Z,43.68
2019-05-10T21:39:33.885Z,42.45
2019-05-10T21:42:02.382Z,46.15
2019-05-10T21:44:30.874Z,43.95
2019-05-10T21:46:59.384Z,43.63
2019-05-10T21:49:29.280Z,62.30
2019-05-10T21:51:57.782Z,67.03
2019-05-10T21:54:26.276Z,73.22
2019-05-10T21:56:54.808Z,69.53
2019-05-10T21:59:23.382Z,70.70
2019-05-10T22:01:51.964Z,48.70
2019-05-10T22:04:20.482Z,45.63
2019-05-10T22:06:48.961Z,63.10
2019-05-10T22:09:17.556Z,62.35
2019-05-10T22:11:46.156Z,49.35
2019-05-10T22:14:14.679Z,36.50
2019-05-10T22:16:43.170Z,32.55
2019-05-10T22:19:11.759Z,34.30
2019-05-10T22:21:40.282Z,54.25
2019-05-10T22:24:08.782Z,60.03
2019-05-10T22:26:37.351Z,47.17
2019-05-10T22:29:05.843Z,44.20
2019-05-10T22:31:34.343Z,62.65
2019-05-10T22:34:02.865Z,67.78
2019-05-10T22:36:31.351Z,59.90
2019-05-10T22:39:07.113Z,57.23
2019-05-10T22:41:30.254Z,62.93
2019-05-10T22:43:58.789Z,61.28
2019-05-10T22:46:27.256Z,58.40
2019-05-10T22:48:55.775Z,61.30
2019-05-10T22:51:24.357Z,60.45
2019-05-10T22:53:59.698Z,59.63
2019-05-10T22:56:23.115Z,69.27
2019-05-10T22:58:51.641Z,43.05
2019-05-10T23:01:20.127Z,39.45
2019-05-10T23:03:48.653Z,32.00
2019-05-10T23:06:17.137Z,35.25
2019-05-10T23:08:45.647Z,29.40
2019-05-10T23:11:14.135Z,27.22
2019-05-10T23:13:42.682Z,28.23
2019-05-10T23:16:11.165Z,21.95
2019-05-10T23:18:39.652Z,21.17
2019-05-10T23:21:08.183Z,22.70
2019-05-10T23:23:36.687Z,21.23
2019-05-10T23:26:05.205Z,22.25
2019-05-10T23:28:33.690Z,25.88
2019-05-10T23:31:02.209Z,26.87
2019-05-10T23:33:30.699Z,23.92
2019-05-10T23:35:59.207Z,36.42
2019-05-10T23:38:27.706Z,56.30
2019-05-10T23:40:56.230Z,45.43
2019-05-10T23:43:24.715Z,35.40
2019-05-10T23:45:53.200Z,41.80
2019-05-10T23:48:21.716Z,41.00
2019-05-10T23:50:50.215Z,38.35
2019-05-10T23:53:18.700Z,47.30
2019-05-10T23:55:47.217Z,39.15
2019-05-10T23:58:15.743Z,29.85
